createdAt,value
2022-08-17T00:01:21.118Z,8.02
2022-08-17T00:06:31.399Z,8.80
2022-08-17T00:11:38.007Z,9.48
2022-08-17T00:16:56.243Z,9.05
2022-08-17T00:22:33.653Z,10.40
2022-08-17T00:27:26.115Z,10.15
2022-08-17T00:33:23.147Z,9.82
2022-08-17T00:37:54.864Z,9.93
2022-08-17T00:43:12.122Z,10.02
2022-08-17T00:48:30.102Z,10.25
2022-08-17T00:53:38.628Z,11.18
2022-08-17T00:58:42.107Z,10.57
2022-08-17T01:03:45.949Z,10.23
2022-08-17T01:08:57.467Z,11.57
2022-08-17T01:14:01.317Z,10.40
2022-08-17T01:19:11.058Z,10.13
2022-08-17T01:24:16.730Z,10.20
2022-08-17T01:29:21.708Z,10.57
2022-08-17T01:34:25.177Z,9.57
2022-08-17T01:39:50.371Z,10.23
2022-08-17T01:44:58.565Z,9.93
2022-08-17T01:50:08.556Z,11.60
2022-08-17T01:55:17.694Z,10.27
2022-08-17T02:00:21.887Z,10.70
2022-08-17T02:05:25.397Z,11.33
2022-08-17T02:10:33.726Z,11.65
2022-08-17T02:15:37.926Z,11.30
2022-08-17T02:20:42.963Z,11.77
2022-08-17T02:25:48.719Z,11.73
2022-08-17T02:31:01.127Z,12.32
2022-08-17T02:36:10.800Z,12.32
2022-08-17T02:41:15.256Z,11.90
2022-08-17T02:46:19.480Z,11.25
2022-08-17T02:51:22.933Z,11.53
2022-08-17T02:56:28.391Z,11.73
2022-08-17T03:01:31.778Z,12.40
2022-08-17T03:06:35.360Z,13.25
2022-08-17T03:11:39.891Z,12.40
2022-08-17T03:16:43.611Z,11.35
2022-08-17T03:21:47.204Z,12.25
2022-08-17T03:26:59.920Z,12.05
2022-08-17T03:32:11.022Z,13.10
2022-08-17T03:37:14.771Z,12.32
2022-08-17T03:42:32.292Z,12.05
2022-08-17T03:47:54.444Z,10.25
2022-08-17T03:53:16.514Z,12.65
2022-08-17T03:58:21.612Z,12.32
2022-08-17T04:03:24.815Z,10.77
2022-08-17T04:08:28.156Z,12.85
2022-08-17T04:13:32.590Z,12.80
2022-08-17T04:18:36.747Z,12.18
2022-08-17T04:23:40.032Z,12.43
2022-08-17T04:28:44.858Z,12.70
2022-08-17T04:33:47.979Z,12.85
2022-08-17T04:38:51.149Z,12.23
2022-08-17T04:43:58.224Z,12.15
2022-08-17T04:49:03.585Z,13.15
2022-08-17T04:54:08.680Z,12.27
2022-08-17T04:59:16.672Z,11.60
2022-08-17T05:04:33.779Z,11.10
2022-08-17T05:09:38.200Z,11.80
2022-08-17T05:14:42.693Z,10.60
2022-08-17T05:19:51.773Z,10.37
2022-08-17T05:24:55.623Z,10.27
2022-08-17T05:30:00.274Z,9.57
2022-08-17T05:35:04.156Z,9.20
2022-08-17T05:40:08.503Z,9.45
2022-08-17T05:45:15.783Z,7.57
2022-08-17T05:50:27.113Z,7.40
2022-08-17T05:55:45.827Z,6.67
2022-08-17T06:01:00.335Z,6.40
2022-08-17T06:11:22.886Z,7.05
2022-08-17T06:16:35.487Z,7.25
2022-08-17T06:21:42.549Z,7.28
2022-08-17T06:26:46.555Z,6.53
2022-08-17T06:31:52.049Z,6.88
2022-08-17T06:37:05.483Z,6.85
2022-08-17T06:43:02.526Z,6.97
2022-08-17T06:47:49.064Z,6.10
2022-08-17T06:52:57.675Z,7.00
2022-08-17T06:58:15.896Z,5.65
2022-08-17T07:03:41.525Z,4.22
2022-08-17T07:08:53.501Z,4.65
2022-08-17T07:14:07.307Z,4.25
2022-08-17T07:19:13.756Z,4.20
2022-08-17T07:24:31.758Z,3.40
2022-08-17T07:29:40.076Z,3.38
2022-08-17T07:35:21.084Z,3.38
2022-08-17T07:40:29.767Z,3.20
2022-08-17T07:45:54.273Z,3.03
2022-08-17T07:51:00.290Z,3.22
2022-08-17T07:56:05.016Z,3.30
2022-08-17T08:01:10.874Z,3.47
2022-08-17T08:06:24.867Z,3.38
2022-08-17T08:11:33.081Z,3.33
2022-08-17T08:16:36.961Z,4.13
2022-08-17T08:21:48.761Z,3.50
2022-08-17T08:27:01.138Z,3.15
2022-08-17T08:32:12.064Z,3.83
2022-08-17T08:37:33.874Z,3.78
2022-08-17T08:42:51.742Z,3.47
2022-08-17T08:48:45.806Z,3.70
2022-08-17T08:53:57.229Z,3.75
2022-08-17T08:59:07.684Z,3.53
2022-08-17T09:05:02.779Z,3.60
2022-08-17T09:10:08.282Z,3.92
2022-08-17T09:15:18.368Z,3.97
2022-08-17T09:20:28.306Z,3.42
2022-08-17T09:25:42.445Z,3.58
2022-08-17T09:30:50.160Z,3.25
2022-08-17T09:35:58.331Z,2.92
2022-08-17T09:41:12.437Z,3.10
2022-08-17T09:46:19.674Z,3.30
2022-08-17T09:51:30.418Z,3.40
2022-08-17T09:56:48.288Z,2.92
2022-08-17T10:07:13.884Z,2.85
2022-08-17T10:12:32.297Z,3.20
2022-08-17T10:17:45.967Z,3.38
2022-08-17T10:23:12.496Z,2.83
2022-08-17T10:28:25.880Z,3.65
2022-08-17T10:33:41.519Z,3.28
2022-08-17T10:38:47.066Z,4.13
2022-08-17T10:44:40.321Z,2.88
2022-08-17T10:49:27.083Z,3.42
2022-08-17T10:54:58.336Z,2.67
2022-08-17T11:00:11.090Z,3.50
2022-08-17T11:05:50.373Z,3.37
2022-08-17T11:11:09.722Z,3.10
2022-08-17T11:16:36.012Z,3.00
2022-08-17T11:22:00.504Z,2.78
2022-08-17T11:27:12.277Z,3.05
2022-08-17T11:32:37.306Z,3.03
2022-08-17T11:37:49.727Z,2.88
2022-08-17T11:43:07.946Z,2.97
2022-08-17T11:48:38.790Z,2.85
2022-08-17T11:54:32.403Z,2.75
2022-08-17T11:59:57.714Z,2.65
2022-08-17T12:05:25.355Z,3.33
2022-08-17T12:10:32.616Z,2.80
2022-08-17T12:15:41.902Z,2.60
2022-08-17T12:21:00.218Z,2.38
2022-08-17T12:26:09.007Z,2.80
2022-08-17T12:31:20.128Z,2.75
2022-08-17T12:36:28.183Z,3.05
2022-08-17T12:41:39.004Z,2.97
2022-08-17T12:46:53.197Z,3.33
2022-08-17T12:52:09.756Z,3.28
2022-08-17T12:57:16.853Z,3.13
2022-08-17T13:02:28.415Z,3.35
2022-08-17T13:07:40.204Z,3.25
2022-08-17T13:12:43.426Z,3.28
2022-08-17T13:17:57.268Z,3.28
2022-08-17T13:23:12.020Z,3.58
2022-08-17T13:28:18.944Z,3.33
2022-08-17T13:33:45.159Z,2.83
2022-08-17T13:43:54.277Z,3.22
2022-08-17T13:54:18.678Z,3.10
2022-08-17T13:59:52.549Z,3.15
2022-08-17T14:04:51.907Z,2.85
2022-08-17T14:10:00.304Z,3.17
2022-08-17T14:15:04.718Z,3.10
2022-08-17T14:20:12.553Z,3.58
2022-08-17T14:25:20.898Z,3.05
2022-08-17T14:30:25.810Z,3.50
2022-08-17T14:35:30.363Z,3.55
2022-08-17T14:40:35.989Z,3.47
2022-08-17T14:45:39.142Z,3.58
2022-08-17T14:50:43.775Z,3.53
2022-08-17T14:55:50.268Z,4.35
2022-08-17T15:00:53.397Z,3.50
2022-08-17T15:05:56.878Z,3.67
2022-08-17T15:11:03.050Z,3.80
2022-08-17T15:16:08.605Z,3.38
2022-08-17T15:21:11.840Z,3.60
2022-08-17T15:26:16.859Z,3.72
2022-08-17T15:31:20.090Z,3.30
2022-08-17T15:36:35.808Z,4.25
2022-08-17T15:46:43.429Z,3.90
2022-08-17T15:51:46.834Z,3.83
2022-08-17T15:56:51.348Z,5.25
2022-08-17T16:03:13.360Z,3.88
2022-08-17T16:07:26.051Z,3.55
2022-08-17T16:12:31.139Z,4.30
2022-08-17T16:17:40.109Z,3.45
2022-08-17T16:22:45.683Z,3.90
2022-08-17T16:27:53.410Z,4.00
2022-08-17T16:32:58.770Z,3.97
2022-08-17T16:38:02.747Z,4.88
2022-08-17T16:43:12.142Z,4.43
2022-08-17T16:48:15.921Z,4.65
2022-08-17T16:53:19.409Z,4.38
2022-08-17T16:58:24.684Z,4.85
2022-08-17T17:03:29.209Z,4.70
2022-08-17T17:08:40.693Z,4.80
2022-08-17T17:13:54.256Z,4.82
2022-08-17T17:19:05.157Z,5.10
2022-08-17T17:24:17.111Z,4.97
2022-08-17T17:29:35.786Z,5.22
2022-08-17T17:34:59.585Z,4.75
2022-08-17T17:40:07.611Z,5.95
2022-08-17T17:45:20.037Z,4.72
2022-08-17T17:50:33.083Z,5.20
2022-08-17T17:55:47.163Z,5.10
2022-08-17T18:01:09.200Z,5.30
2022-08-17T18:06:25.697Z,5.22
2022-08-17T18:12:11.341Z,5.22
2022-08-17T18:17:18.018Z,5.32
2022-08-17T18:22:23.273Z,5.18
2022-08-17T18:27:32.686Z,5.53
2022-08-17T18:32:38.494Z,5.95
2022-08-17T18:37:45.030Z,5.63
2022-08-17T18:42:59.997Z,5.93
2022-08-17T18:48:06.334Z,5.45
2022-08-17T18:53:26.610Z,5.03
2022-08-17T18:58:33.546Z,5.78
2022-08-17T19:03:42.916Z,5.57
2022-08-17T19:08:46.034Z,5.95
2022-08-17T19:13:54.635Z,5.95
2022-08-17T19:19:05.085Z,5.65
2022-08-17T19:24:12.434Z,6.60
2022-08-17T19:29:22.340Z,5.45
2022-08-17T19:34:33.823Z,6.85
2022-08-17T19:39:57.953Z,5.97
2022-08-17T19:45:09.417Z,7.10
2022-08-17T19:50:22.379Z,6.22
2022-08-17T19:55:33.170Z,5.82
2022-08-17T20:00:39.963Z,6.32
2022-08-17T20:06:11.527Z,6.72
2022-08-17T20:11:20.147Z,5.90
2022-08-17T20:16:24.658Z,5.97
2022-08-17T20:21:37.306Z,6.65
2022-08-17T20:26:57.911Z,6.38
2022-08-17T20:32:14.606Z,5.97
2022-08-17T20:37:32.661Z,6.63
2022-08-17T20:42:36.662Z,6.97
2022-08-17T20:48:00.891Z,6.80
2022-08-17T20:53:10.193Z,7.03
2022-08-17T20:58:46.834Z,6.60
2022-08-17T21:03:54.049Z,6.57
2022-08-17T21:09:27.720Z,6.90
2022-08-17T21:14:59.767Z,6.93
2022-08-17T21:20:12.949Z,7.22
2022-08-17T21:25:34.132Z,6.47
2022-08-17T21:30:47.693Z,7.65
2022-08-17T21:41:03.833Z,7.55
2022-08-17T21:46:12.208Z,7.82
2022-08-17T21:51:19.543Z,7.05
2022-08-17T21:56:27.295Z,7.22
2022-08-17T22:01:34.533Z,7.63
2022-08-17T22:06:40.523Z,7.95
2022-08-17T22:11:58.620Z,7.65
2022-08-17T22:17:11.243Z,7.82
2022-08-17T22:22:27.413Z,8.02
2022-08-17T22:27:50.800Z,7.50
2022-08-17T22:38:13.251Z,8.00
2022-08-17T22:43:21.296Z,8.38
2022-08-17T22:48:31.231Z,7.53
2022-08-17T22:53:54.427Z,8.27
2022-08-17T22:59:18.467Z,8.25
2022-08-17T23:04:33.213Z,9.15
2022-08-17T23:09:36.371Z,8.00
2022-08-17T23:14:42.440Z,8.15
2022-08-17T23:19:45.471Z,9.15
2022-08-17T23:24:50.627Z,7.45
2022-08-17T23:29:55.687Z,9.18
2022-08-17T23:34:59.211Z,8.68
2022-08-17T23:40:03.099Z,9.25
2022-08-17T23:45:09.255Z,8.37
2022-08-17T23:50:12.829Z,8.30
2022-08-17T23:55:15.938Z,8.50
